sensor_id;sensor_type;location;lat;lon;timestamp;pressure;altitude;pressure_sealevel;temperature;humidity
37792;BME280;29527;55.766;37.570;2022-07-05T00:00:05;99691.91;;;23.91;42.33
37792;BME280;29527;55.766;37.570;2022-07-05T00:02:31;99664.84;;;23.70;42.47
37792;BME280;29527;55.766;37.570;2022-07-05T00:04:57;99694.25;;;23.81;42.60
37792;BME280;29527;55.766;37.570;2022-07-05T00:07:22;99679.56;;;23.69;42.53
37792;BME280;29527;55.766;37.570;2022-07-05T00:09:50;99690.88;;;23.79;42.39
37792;BME280;29527;55.766;37.570;2022-07-05T00:12:17;99703.50;;;23.80;42.22
37792;BME280;29527;55.766;37.570;2022-07-05T00:14:44;99701.81;;;23.79;42.38
37792;BME280;29527;55.766;37.570;2022-07-05T00:17:11;99696.78;;;23.76;42.29
37792;BME280;29527;55.766;37.570;2022-07-05T00:19:37;99703.50;;;23.73;42.77
37792;BME280;29527;55.766;37.570;2022-07-05T00:22:03;99692.63;;;23.67;42.54
37792;BME280;29527;55.766;37.570;2022-07-05T00:24:28;99697.22;;;23.73;42.52
37792;BME280;29527;55.766;37.570;2022-07-05T00:26:54;99692.81;;;23.72;42.45
37792;BME280;29527;55.766;37.570;2022-07-05T00:29:20;99703.75;;;23.72;42.58
37792;BME280;29527;55.766;37.570;2022-07-05T00:31:45;99697.66;;;23.70;42.43
37792;BME280;29527;55.766;37.570;2022-07-05T00:34:11;99699.75;;;23.68;42.46
37792;BME280;29527;55.766;37.570;2022-07-05T00:36:36;99698.28;;;23.65;42.71
37792;BME280;29527;55.766;37.570;2022-07-05T00:39:03;99703.31;;;23.61;42.66
37792;BME280;29527;55.766;37.570;2022-07-05T00:41:29;99694.72;;;23.58;42.42
37792;BME280;29527;55.766;37.570;2022-07-05T00:44:00;99703.97;;;23.63;42.58
37792;BME280;29527;55.766;37.570;2022-07-05T00:46:27;99696.84;;;23.49;42.82
37792;BME280;29527;55.766;37.570;2022-07-05T00:48:53;99705.47;;;23.53;42.77
37792;BME280;29527;55.766;37.570;2022-07-05T00:51:20;99708.41;;;23.51;42.82
37792;BME280;29527;55.766;37.570;2022-07-05T00:53:46;99709.03;;;23.46;42.86
37792;BME280;29527;55.766;37.570;2022-07-05T00:56:12;99706.91;;;23.48;42.80
37792;BME280;29527;55.766;37.570;2022-07-05T00:58:38;99708.19;;;23.46;42.94
37792;BME280;29527;55.766;37.570;2022-07-05T01:01:06;99718.91;;;23.47;42.81
37792;BME280;29527;55.766;37.570;2022-07-05T01:03:32;99710.72;;;23.41;42.98
37792;BME280;29527;55.766;37.570;2022-07-05T01:06:00;99719.75;;;23.41;43.08
37792;BME280;29527;55.766;37.570;2022-07-05T01:08:28;99708.38;;;23.37;43.10
37792;BME280;29527;55.766;37.570;2022-07-05T01:10:55;99696.44;;;23.32;43.34
37792;BME280;29527;55.766;37.570;2022-07-05T01:13:24;99711.34;;;23.43;43.11
37792;BME280;29527;55.766;37.570;2022-07-05T01:15:51;99685.69;;;23.23;43.21
37792;BME280;29527;55.766;37.570;2022-07-05T01:18:19;99710.31;;;23.37;43.28
37792;BME280;29527;55.766;37.570;2022-07-05T01:20:47;99717.25;;;23.40;43.11
37792;BME280;29527;55.766;37.570;2022-07-05T01:23:13;99709.88;;;23.40;43.19
37792;BME280;29527;55.766;37.570;2022-07-05T01:25:39;99708.00;;;23.41;42.98
37792;BME280;29527;55.766;37.570;2022-07-05T01:28:05;99714.09;;;23.43;42.83
37792;BME280;29527;55.766;37.570;2022-07-05T01:30:33;99709.44;;;23.50;42.77
37792;BME280;29527;55.766;37.570;2022-07-05T01:33:00;99707.75;;;23.49;42.88
37792;BME280;29527;55.766;37.570;2022-07-05T01:35:25;99710.28;;;23.50;42.65
37792;BME280;29527;55.766;37.570;2022-07-05T01:37:51;99711.97;;;23.51;42.97
37792;BME280;29527;55.766;37.570;2022-07-05T01:40:18;99710.06;;;23.52;42.86
37792;BME280;29527;55.766;37.570;2022-07-05T01:42:44;99711.13;;;23.51;43.00
37792;BME280;29527;55.766;37.570;2022-07-05T01:45:10;99714.69;;;23.58;42.72
37792;BME280;29527;55.766;37.570;2022-07-05T01:47:43;99709.00;;;23.67;42.35
37792;BME280;29527;55.766;37.570;2022-07-05T01:50:15;99712.47;;;24.01;41.30
37792;BME280;29527;55.766;37.570;2022-07-05T01:52:43;99711.50;;;23.82;42.00
37792;BME280;29527;55.766;37.570;2022-07-05T01:55:11;99706.03;;;23.82;42.16
37792;BME280;29527;55.766;37.570;2022-07-05T01:57:36;99710.22;;;23.84;41.98
37792;BME280;29527;55.766;37.570;2022-07-05T02:00:02;99698.63;;;23.89;41.90
37792;BME280;29527;55.766;37.570;2022-07-05T02:02:29;99703.47;;;23.93;42.14
37792;BME280;29527;55.766;37.570;2022-07-05T02:04:55;99687.69;;;23.96;42.06
37792;BME280;29527;55.766;37.570;2022-07-05T02:07:20;99686.41;;;24.05;41.74
37792;BME280;29527;55.766;37.570;2022-07-05T02:09:45;99700.69;;;24.14;41.48
37792;BME280;29527;55.766;37.570;2022-07-05T02:12:11;99699.00;;;24.19;41.52
37792;BME280;29527;55.766;37.570;2022-07-05T02:14:37;99697.69;;;24.22;41.84
37792;BME280;29527;55.766;37.570;2022-07-05T02:17:03;99697.06;;;24.27;41.65
37792;BME280;29527;55.766;37.570;2022-07-05T02:19:28;99700.19;;;24.37;41.59
37792;BME280;29527;55.766;37.570;2022-07-05T02:21:54;99704.91;;;24.55;41.31
37792;BME280;29527;55.766;37.570;2022-07-05T02:24:20;99701.25;;;24.75;40.62
37792;BME280;29527;55.766;37.570;2022-07-05T02:26:47;99708.66;;;25.00;40.04
37792;BME280;29527;55.766;37.570;2022-07-05T02:29:13;99701.75;;;25.22;39.80
37792;BME280;29527;55.766;37.570;2022-07-05T02:31:39;99699.03;;;25.41;39.04
37792;BME280;29527;55.766;37.570;2022-07-05T02:34:04;99692.03;;;25.71;38.14
37792;BME280;29527;55.766;37.570;2022-07-05T02:36:30;99696.84;;;25.94;37.67
37792;BME280;29527;55.766;37.570;2022-07-05T02:38:55;99692.66;;;26.29;37.39
37792;BME280;29527;55.766;37.570;2022-07-05T02:41:21;99663.19;;;26.55;36.25
37792;BME280;29527;55.766;37.570;2022-07-05T02:43:46;99685.13;;;26.97;35.84
37792;BME280;29527;55.766;37.570;2022-07-05T02:46:11;99675.84;;;27.22;35.00
37792;BME280;29527;55.766;37.570;2022-07-05T02:48:37;99692.84;;;27.43;35.14
37792;BME280;29527;55.766;37.570;2022-07-05T02:51:03;99676.44;;;27.36;34.68
37792;BME280;29527;55.766;37.570;2022-07-05T02:53:29;99699.06;;;27.50;34.33
37792;BME280;29527;55.766;37.570;2022-07-05T02:55:55;99703.59;;;27.44;34.65
37792;BME280;29527;55.766;37.570;2022-07-05T02:58:20;99700.59;;;27.34;34.96
37792;BME280;29527;55.766;37.570;2022-07-05T03:00:47;99705.38;;;27.27;35.32
37792;BME280;29527;55.766;37.570;2022-07-05T03:03:14;99712.81;;;27.26;35.17
37792;BME280;29527;55.766;37.570;2022-07-05T03:05:39;99703.22;;;27.41;34.88
37792;BME280;29527;55.766;37.570;2022-07-05T03:08:05;99709.25;;;27.73;34.52
37792;BME280;29527;55.766;37.570;2022-07-05T03:10:32;99710.97;;;28.15;33.64
37792;BME280;29527;55.766;37.570;2022-07-05T03:12:58;99702.91;;;28.67;32.69
37792;BME280;29527;55.766;37.570;2022-07-05T03:15:23;99705.91;;;29.11;31.74
37792;BME280;29527;55.766;37.570;2022-07-05T03:17:48;99683.41;;;29.36;31.25
37792;BME280;29527;55.766;37.570;2022-07-05T03:20:14;99692.72;;;29.87;30.63
37792;BME280;29527;55.766;37.570;2022-07-05T03:22:39;99702.88;;;30.26;30.30
37792;BME280;29527;55.766;37.570;2022-07-05T03:25:05;99715.34;;;30.56;29.73
37792;BME280;29527;55.766;37.570;2022-07-05T03:27:31;99709.09;;;30.88;29.20
37792;BME280;29527;55.766;37.570;2022-07-05T03:29:57;99713.81;;;31.20;28.68
37792;BME280;29527;55.766;37.570;2022-07-05T03:32:22;99719.00;;;31.49;27.92
37792;BME280;29527;55.766;37.570;2022-07-05T03:34:48;99718.66;;;31.78;27.07
37792;BME280;29527;55.766;37.570;2022-07-05T03:37:15;99727.16;;;32.19;26.45
37792;BME280;29527;55.766;37.570;2022-07-05T03:39:40;99721.19;;;32.38;26.34
37792;BME280;29527;55.766;37.570;2022-07-05T03:42:06;99724.31;;;32.73;25.62
37792;BME280;29527;55.766;37.570;2022-07-05T03:44:31;99699.13;;;33.11;25.51
37792;BME280;29527;55.766;37.570;2022-07-05T03:46:58;99721.88;;;33.59;24.41
37792;BME280;29527;55.766;37.570;2022-07-05T03:49:24;99721.22;;;33.93;23.84
37792;BME280;29527;55.766;37.570;2022-07-05T03:51:50;99723.34;;;34.28;23.61
37792;BME280;29527;55.766;37.570;2022-07-05T03:54:15;99735.69;;;34.56;23.04
37792;BME280;29527;55.766;37.570;2022-07-05T03:56:41;99715.00;;;34.78;22.55
37792;BME280;29527;55.766;37.570;2022-07-05T03:59:06;99731.06;;;35.26;22.13
37792;BME280;29527;55.766;37.570;2022-07-05T04:01:32;99729.06;;;35.61;21.37
37792;BME280;29527;55.766;37.570;2022-07-05T04:03:57;99742.91;;;35.96;21.17
37792;BME280;29527;55.766;37.570;2022-07-05T04:06:23;99728.84;;;36.31;20.50
37792;BME280;29527;55.766;37.570;2022-07-05T04:08:48;99732.16;;;36.57;20.73
37792;BME280;29527;55.766;37.570;2022-07-05T04:11:14;99721.75;;;37.01;20.01
37792;BME280;29527;55.766;37.570;2022-07-05T04:13:41;99740.53;;;37.76;19.12
37792;BME280;29527;55.766;37.570;2022-07-05T04:16:07;99743.69;;;38.02;18.96
37792;BME280;29527;55.766;37.570;2022-07-05T04:18:33;99736.41;;;38.43;18.48
37792;BME280;29527;55.766;37.570;2022-07-05T04:20:58;99732.69;;;38.85;17.89
37792;BME280;29527;55.766;37.570;2022-07-05T04:23:24;99736.00;;;39.55;17.34
37792;BME280;29527;55.766;37.570;2022-07-05T04:25:49;99737.31;;;40.47;16.46
37792;BME280;29527;55.766;37.570;2022-07-05T04:28:15;99742.44;;;41.07;15.90
37792;BME280;29527;55.766;37.570;2022-07-05T04:30:40;99737.06;;;41.67;15.15
37792;BME280;29527;55.766;37.570;2022-07-05T04:33:06;99739.69;;;42.11;14.56
37792;BME280;29527;55.766;37.570;2022-07-05T04:35:32;99735.28;;;42.74;14.25
37792;BME280;29527;55.766;37.570;2022-07-05T04:37:57;99742.41;;;43.14;13.40
37792;BME280;29527;55.766;37.570;2022-07-05T04:40:23;99737.84;;;43.22;13.47
37792;BME280;29527;55.766;37.570;2022-07-05T04:42:48;99737.84;;;43.55;13.49
37792;BME280;29527;55.766;37.570;2022-07-05T04:45:13;99746.38;;;43.93;12.72
37792;BME280;29527;55.766;37.570;2022-07-05T04:47:39;99727.19;;;44.11;12.26
37792;BME280;29527;55.766;37.570;2022-07-05T04:50:05;99721.56;;;44.11;12.14
37792;BME280;29527;55.766;37.570;2022-07-05T04:52:31;99739.53;;;44.31;11.95
37792;BME280;29527;55.766;37.570;2022-07-05T04:54:56;99741.38;;;44.64;11.75
37792;BME280;29527;55.766;37.570;2022-07-05T04:57:22;99720.75;;;45.05;11.88
37792;BME280;29527;55.766;37.570;2022-07-05T04:59:47;99737.97;;;45.44;11.46
37792;BME280;29527;55.766;37.570;2022-07-05T05:02:13;99731.22;;;45.65;11.28
37792;BME280;29527;55.766;37.570;2022-07-05T05:04:38;99737.78;;;46.01;10.96
37792;BME280;29527;55.766;37.570;2022-07-05T05:07:04;99733.22;;;46.48;10.55
37792;BME280;29527;55.766;37.570;2022-07-05T05:09:30;99732.03;;;46.13;10.72
37792;BME280;29527;55.766;37.570;2022-07-05T05:11:55;99728.06;;;45.82;11.10
37792;BME280;29527;55.766;37.570;2022-07-05T05:14:21;99741.03;;;46.35;10.87
37792;BME280;29527;55.766;37.570;2022-07-05T05:16:46;99737.00;;;46.92;10.69
37792;BME280;29527;55.766;37.570;2022-07-05T05:19:12;99730.94;;;47.13;10.58
37792;BME280;29527;55.766;37.570;2022-07-05T05:21:37;99710.78;;;47.88;9.91
37792;BME280;29527;55.766;37.570;2022-07-05T05:24:03;99728.22;;;48.75;9.20
37792;BME280;29527;55.766;37.570;2022-07-05T05:26:29;99727.25;;;48.63;9.16
37792;BME280;29527;55.766;37.570;2022-07-05T05:28:55;99741.16;;;48.72;9.39
37792;BME280;29527;55.766;37.570;2022-07-05T05:31:20;99736.66;;;49.39;8.66
37792;BME280;29527;55.766;37.570;2022-07-05T05:33:46;99733.44;;;49.90;8.38
37792;BME280;29527;55.766;37.570;2022-07-05T05:36:11;99737.84;;;50.39;7.95
37792;BME280;29527;55.766;37.570;2022-07-05T05:38:37;99737.13;;;50.53;8.09
37792;BME280;29527;55.766;37.570;2022-07-05T05:41:03;99733.09;;;50.69;7.76
37792;BME280;29527;55.766;37.570;2022-07-05T05:43:28;99736.44;;;50.89;7.57
37792;BME280;29527;55.766;37.570;2022-07-05T05:45:54;99723.47;;;51.10;7.50
37792;BME280;29527;55.766;37.570;2022-07-05T05:48:19;99730.00;;;51.18;7.74
37792;BME280;29527;55.766;37.570;2022-07-05T05:50:48;99733.31;;;51.71;7.25
37792;BME280;29527;55.766;37.570;2022-07-05T05:53:13;99715.75;;;52.16;7.01
37792;BME280;29527;55.766;37.570;2022-07-05T05:55:39;99716.19;;;51.85;6.88
37792;BME280;29527;55.766;37.570;2022-07-05T05:58:19;99723.47;;;52.19;7.21
37792;BME280;29527;55.766;37.570;2022-07-05T06:00:46;99720.53;;;52.44;6.88
37792;BME280;29527;55.766;37.570;2022-07-05T06:03:21;99722.09;;;53.38;6.53
37792;BME280;29527;55.766;37.570;2022-07-05T06:05:47;99717.47;;;53.97;6.22
37792;BME280;29527;55.766;37.570;2022-07-05T06:08:13;99705.72;;;53.88;5.76
37792;BME280;29527;55.766;37.570;2022-07-05T06:10:39;99716.91;;;53.71;5.54
37792;BME280;29527;55.766;37.570;2022-07-05T06:13:09;99731.56;;;53.80;6.27
37792;BME280;29527;55.766;37.570;2022-07-05T06:15:36;99713.94;;;53.36;5.99
37792;BME280;29527;55.766;37.570;2022-07-05T06:18:02;99695.13;;;53.39;5.98
37792;BME280;29527;55.766;37.570;2022-07-05T06:20:30;99712.41;;;53.74;5.86
37792;BME280;29527;55.766;37.570;2022-07-05T06:22:57;99720.31;;;54.04;5.57
37792;BME280;29527;55.766;37.570;2022-07-05T06:25:23;99715.63;;;54.18;5.44
37792;BME280;29527;55.766;37.570;2022-07-05T06:27:53;99718.09;;;54.19;5.57
37792;BME280;29527;55.766;37.570;2022-07-05T06:30:21;99717.09;;;54.33;5.55
37792;BME280;29527;55.766;37.570;2022-07-05T06:32:48;99711.91;;;54.56;5.13
37792;BME280;29527;55.766;37.570;2022-07-05T06:35:13;99714.66;;;54.94;4.89
37792;BME280;29527;55.766;37.570;2022-07-05T06:38:00;99721.66;;;55.92;5.29
37792;BME280;29527;55.766;37.570;2022-07-05T06:40:30;99712.94;;;55.28;4.88
37792;BME280;29527;55.766;37.570;2022-07-05T06:42:58;99711.34;;;55.50;4.99
37792;BME280;29527;55.766;37.570;2022-07-05T06:45:25;99701.41;;;55.79;4.54
37792;BME280;29527;55.766;37.570;2022-07-05T06:48:10;99703.34;;;56.67;4.86
37792;BME280;29527;55.766;37.570;2022-07-05T06:50:38;99693.31;;;56.38;4.15
37792;BME280;29527;55.766;37.570;2022-07-05T06:53:04;99698.22;;;56.58;4.31
37792;BME280;29527;55.766;37.570;2022-07-05T06:55:30;99694.50;;;56.94;4.21
37792;BME280;29527;55.766;37.570;2022-07-05T06:58:00;99710.47;;;57.48;3.95
37792;BME280;29527;55.766;37.570;2022-07-05T07:00:26;99700.50;;;57.37;4.20
37792;BME280;29527;55.766;37.570;2022-07-05T07:02:52;99693.72;;;57.60;3.81
37792;BME280;29527;55.766;37.570;2022-07-05T07:05:18;99685.25;;;58.28;3.75
37792;BME280;29527;55.766;37.570;2022-07-05T07:07:43;99688.91;;;58.97;3.46
37792;BME280;29527;55.766;37.570;2022-07-05T07:10:27;99689.34;;;59.57;2.66
37792;BME280;29527;55.766;37.570;2022-07-05T07:12:53;99683.59;;;59.57;2.71
37792;BME280;29527;55.766;37.570;2022-07-05T07:15:18;99674.84;;;58.86;3.06
37792;BME280;29527;55.766;37.570;2022-07-05T07:17:44;99681.78;;;58.33;3.53
37792;BME280;29527;55.766;37.570;2022-07-05T07:20:09;99679.28;;;57.93;3.70
37792;BME280;29527;55.766;37.570;2022-07-05T07:22:35;99674.00;;;58.04;3.30
37792;BME280;29527;55.766;37.570;2022-07-05T07:25:00;99683.78;;;58.50;3.14
37792;BME280;29527;55.766;37.570;2022-07-05T07:27:28;99674.28;;;58.23;2.92
37792;BME280;29527;55.766;37.570;2022-07-05T07:29:53;99674.09;;;57.71;3.63
37792;BME280;29527;55.766;37.570;2022-07-05T07:32:19;99667.09;;;57.39;3.66
37792;BME280;29527;55.766;37.570;2022-07-05T07:34:44;99686.31;;;57.75;3.22
37792;BME280;29527;55.766;37.570;2022-07-05T07:37:10;99666.72;;;57.54;3.51
37792;BME280;29527;55.766;37.570;2022-07-05T07:39:39;99666.72;;;56.87;4.08
37792;BME280;29527;55.766;37.570;2022-07-05T07:42:06;99689.47;;;56.61;4.13
37792;BME280;29527;55.766;37.570;2022-07-05T07:44:32;99681.09;;;56.71;4.16
37792;BME280;29527;55.766;37.570;2022-07-05T07:46:57;99666.50;;;56.98;4.20
37792;BME280;29527;55.766;37.570;2022-07-05T07:49:23;99668.25;;;56.92;4.07
37792;BME280;29527;55.766;37.570;2022-07-05T07:51:48;99674.03;;;57.25;4.08
37792;BME280;29527;55.766;37.570;2022-07-05T07:54:14;99669.72;;;57.17;4.07
37792;BME280;29527;55.766;37.570;2022-07-05T07:56:39;99669.94;;;57.72;3.41
37792;BME280;29527;55.766;37.570;2022-07-05T07:59:05;99676.00;;;58.20;3.15
37792;BME280;29527;55.766;37.570;2022-07-05T08:01:30;99685.00;;;58.36;3.56
37792;BME280;29527;55.766;37.570;2022-07-05T08:03:56;99646.66;;;58.39;3.51
37792;BME280;29527;55.766;37.570;2022-07-05T08:06:22;99673.41;;;58.10;3.56
37792;BME280;29527;55.766;37.570;2022-07-05T08:08:47;99671.34;;;57.34;3.99
37792;BME280;29527;55.766;37.570;2022-07-05T08:11:13;99659.13;;;56.60;4.08
37792;BME280;29527;55.766;37.570;2022-07-05T08:13:40;99663.16;;;56.06;4.25
37792;BME280;29527;55.766;37.570;2022-07-05T08:16:07;99671.78;;;55.62;4.71
37792;BME280;29527;55.766;37.570;2022-07-05T08:18:33;99661.50;;;54.89;4.78
37792;BME280;29527;55.766;37.570;2022-07-05T08:21:17;99636.53;;;53.93;5.56
37792;BME280;29527;55.766;37.570;2022-07-05T08:24:03;99662.25;;;53.58;5.64
37792;BME280;29527;55.766;37.570;2022-07-05T08:26:29;99648.28;;;52.51;6.49
37792;BME280;29527;55.766;37.570;2022-07-05T08:28:59;99640.19;;;50.35;7.42
37792;BME280;29527;55.766;37.570;2022-07-05T08:31:28;99654.50;;;47.90;8.93
37792;BME280;29527;55.766;37.570;2022-07-05T08:33:54;99651.16;;;45.61;10.45
37792;BME280;29527;55.766;37.570;2022-07-05T08:36:20;99638.25;;;44.01;11.92
37792;BME280;29527;55.766;37.570;2022-07-05T08:38:45;99636.31;;;42.93;12.82
37792;BME280;29527;55.766;37.570;2022-07-05T08:41:11;99633.84;;;41.77;13.49
37792;BME280;29527;55.766;37.570;2022-07-05T08:43:40;99651.44;;;41.17;14.08
37792;BME280;29527;55.766;37.570;2022-07-05T08:46:08;99646.56;;;40.43;14.85
37792;BME280;29527;55.766;37.570;2022-07-05T08:48:38;99630.38;;;40.05;15.21
37792;BME280;29527;55.766;37.570;2022-07-05T08:51:19;99628.44;;;39.74;15.19
37792;BME280;29527;55.766;37.570;2022-07-05T08:53:50;99641.31;;;39.34;16.20
37792;BME280;29527;55.766;37.570;2022-07-05T08:56:17;99640.75;;;38.92;16.78
37792;BME280;29527;55.766;37.570;2022-07-05T08:58:44;99639.28;;;38.49;17.31
37792;BME280;29527;55.766;37.570;2022-07-05T09:01:11;99637.69;;;37.92;17.78
37792;BME280;29527;55.766;37.570;2022-07-05T09:06:12;99639.94;;;37.20;18.88
37792;BME280;29527;55.766;37.570;2022-07-05T09:08:39;99630.81;;;37.00;18.64
37792;BME280;29527;55.766;37.570;2022-07-05T09:11:10;99625.88;;;37.11;18.95
37792;BME280;29527;55.766;37.570;2022-07-05T09:13:38;99632.81;;;37.14;18.91
37792;BME280;29527;55.766;37.570;2022-07-05T09:16:04;99621.41;;;37.10;18.58
37792;BME280;29527;55.766;37.570;2022-07-05T09:21:25;99615.13;;;37.32;18.28
37792;BME280;29527;55.766;37.570;2022-07-05T09:24:00;99599.84;;;37.30;18.63
37792;BME280;29527;55.766;37.570;2022-07-05T09:28:55;99613.00;;;37.57;18.64
37792;BME280;29527;55.766;37.570;2022-07-05T09:31:29;99607.50;;;37.66;18.67
37792;BME280;29527;55.766;37.570;2022-07-05T09:34:03;99605.22;;;37.68;18.12
37792;BME280;29527;55.766;37.570;2022-07-05T09:36:53;99602.88;;;37.75;18.07
37792;BME280;29527;55.766;37.570;2022-07-05T09:39:35;99603.81;;;37.57;18.31
37792;BME280;29527;55.766;37.570;2022-07-05T09:44:52;99603.84;;;36.76;18.98
37792;BME280;29527;55.766;37.570;2022-07-05T09:47:23;99608.06;;;36.74;18.98
37792;BME280;29527;55.766;37.570;2022-07-05T09:49:50;99608.63;;;36.38;19.69
37792;BME280;29527;55.766;37.570;2022-07-05T09:55:16;99614.81;;;36.34;19.91
37792;BME280;29527;55.766;37.570;2022-07-05T09:57:43;99588.41;;;35.88;20.46
37792;BME280;29527;55.766;37.570;2022-07-05T10:00:14;99601.19;;;35.89;20.39
37792;BME280;29527;55.766;37.570;2022-07-05T10:05:17;99602.72;;;35.82;20.61
37792;BME280;29527;55.766;37.570;2022-07-05T10:07:47;99602.91;;;35.66;21.20
37792;BME280;29527;55.766;37.570;2022-07-05T10:10:36;99605.78;;;35.80;20.53
37792;BME280;29527;55.766;37.570;2022-07-05T10:13:03;99592.88;;;35.41;21.63
37792;BME280;29527;55.766;37.570;2022-07-05T10:15:31;99592.41;;;35.09;22.06
37792;BME280;29527;55.766;37.570;2022-07-05T10:18:04;99592.19;;;34.95;22.27
37792;BME280;29527;55.766;37.570;2022-07-05T10:23:05;99602.38;;;34.41;23.70
37792;BME280;29527;55.766;37.570;2022-07-05T10:25:31;99578.47;;;33.95;23.84
37792;BME280;29527;55.766;37.570;2022-07-05T10:27:58;99629.66;;;33.78;24.09
37792;BME280;29527;55.766;37.570;2022-07-05T10:30:25;99641.13;;;33.40;25.61
37792;BME280;29527;55.766;37.570;2022-07-05T10:32:51;99622.03;;;32.82;27.41
37792;BME280;29527;55.766;37.570;2022-07-05T10:35:19;99625.31;;;32.42;29.40
37792;BME280;29527;55.766;37.570;2022-07-05T10:37:47;99615.31;;;31.57;31.82
37792;BME280;29527;55.766;37.570;2022-07-05T10:40:13;99634.72;;;31.67;31.85
37792;BME280;29527;55.766;37.570;2022-07-05T10:42:46;99608.19;;;30.58;32.06
37792;BME280;29527;55.766;37.570;2022-07-05T10:45:32;99608.00;;;30.10;32.57
37792;BME280;29527;55.766;37.570;2022-07-05T10:50:45;99622.94;;;29.69;34.85
37792;BME280;29527;55.766;37.570;2022-07-05T10:53:11;99600.13;;;29.34;37.39
37792;BME280;29527;55.766;37.570;2022-07-05T10:55:54;99609.66;;;29.44;37.32
37792;BME280;29527;55.766;37.570;2022-07-05T10:58:46;99597.72;;;29.60;38.92
37792;BME280;29527;55.766;37.570;2022-07-05T11:03:38;99602.72;;;29.63;39.23
37792;BME280;29527;55.766;37.570;2022-07-05T11:06:06;99611.63;;;29.48;39.97
37792;BME280;29527;55.766;37.570;2022-07-05T11:11:27;99612.94;;;29.85;37.51
37792;BME280;29527;55.766;37.570;2022-07-05T11:13:53;99620.31;;;29.57;38.66
37792;BME280;29527;55.766;37.570;2022-07-05T11:19:08;99605.94;;;30.00;36.47
37792;BME280;29527;55.766;37.570;2022-07-05T11:21:36;99597.09;;;29.98;37.15
37792;BME280;29527;55.766;37.570;2022-07-05T11:24:21;99605.06;;;30.16;35.65
37792;BME280;29527;55.766;37.570;2022-07-05T11:26:48;99603.66;;;29.91;36.95
37792;BME280;29527;55.766;37.570;2022-07-05T11:34:36;99601.97;;;30.40;36.67
37792;BME280;29527;55.766;37.570;2022-07-05T11:37:24;99578.84;;;30.79;35.04
37792;BME280;29527;55.766;37.570;2022-07-05T11:42:33;99607.63;;;31.21;34.79
37792;BME280;29527;55.766;37.570;2022-07-05T11:45:00;99602.44;;;31.30;34.25
37792;BME280;29527;55.766;37.570;2022-07-05T11:47:26;99605.31;;;31.50;34.63
37792;BME280;29527;55.766;37.570;2022-07-05T11:49:53;99611.97;;;31.55;33.76
37792;BME280;29527;55.766;37.570;2022-07-05T11:52:25;99617.59;;;31.75;33.35
37792;BME280;29527;55.766;37.570;2022-07-05T11:54:51;99623.09;;;31.65;32.21
37792;BME280;29527;55.766;37.570;2022-07-05T11:57:18;99615.31;;;31.57;32.67
37792;BME280;29527;55.766;37.570;2022-07-05T11:59:44;99603.56;;;31.34;33.03
37792;BME280;29527;55.766;37.570;2022-07-05T12:02:09;99603.25;;;30.92;33.30
37792;BME280;29527;55.766;37.570;2022-07-05T12:04:35;99607.63;;;30.56;33.52
37792;BME280;29527;55.766;37.570;2022-07-05T12:07:00;99595.81;;;30.33;34.03
37792;BME280;29527;55.766;37.570;2022-07-05T12:09:32;99595.81;;;30.33;33.81
37792;BME280;29527;55.766;37.570;2022-07-05T12:12:20;99599.88;;;30.25;33.90
37792;BME280;29527;55.766;37.570;2022-07-05T12:15:05;99597.16;;;30.03;34.05
37792;BME280;29527;55.766;37.570;2022-07-05T12:17:33;99613.00;;;29.90;35.07
37792;BME280;29527;55.766;37.570;2022-07-05T12:19:59;99608.63;;;29.72;35.17
37792;BME280;29527;55.766;37.570;2022-07-05T12:22:41;99606.28;;;29.59;35.18
37792;BME280;29527;55.766;37.570;2022-07-05T12:25:10;99609.16;;;29.47;35.92
37792;BME280;29527;55.766;37.570;2022-07-05T12:27:38;99592.81;;;29.23;36.70
37792;BME280;29527;55.766;37.570;2022-07-05T12:30:05;99622.53;;;29.21;36.63
37792;BME280;29527;55.766;37.570;2022-07-05T12:32:32;99594.97;;;28.70;37.38
37792;BME280;29527;55.766;37.570;2022-07-05T12:34:58;99629.25;;;28.62;38.24
37792;BME280;29527;55.766;37.570;2022-07-05T12:37:26;99635.84;;;28.61;38.04
37792;BME280;29527;55.766;37.570;2022-07-05T12:40:04;99638.03;;;28.76;36.83
37792;BME280;29527;55.766;37.570;2022-07-05T12:42:34;99647.38;;;28.58;37.16
37792;BME280;29527;55.766;37.570;2022-07-05T12:45:10;99656.06;;;28.67;36.66
37792;BME280;29527;55.766;37.570;2022-07-05T12:47:50;99667.25;;;28.77;36.54
37792;BME280;29527;55.766;37.570;2022-07-05T12:50:22;99667.91;;;28.67;38.17
37792;BME280;29527;55.766;37.570;2022-07-05T12:53:06;99680.44;;;28.75;37.29
37792;BME280;29527;55.766;37.570;2022-07-05T12:56:04;99695.94;;;28.64;38.28
37792;BME280;29527;55.766;37.570;2022-07-05T12:58:58;99706.69;;;28.77;36.28
37792;BME280;29527;55.766;37.570;2022-07-05T13:01:29;99705.59;;;27.97;43.05
37792;BME280;29527;55.766;37.570;2022-07-05T13:06:57;99722.47;;;27.29;44.02
37792;BME280;29527;55.766;37.570;2022-07-05T13:09:31;99737.84;;;26.75;47.57
37792;BME280;29527;55.766;37.570;2022-07-05T13:14:35;99770.91;;;25.94;52.02
37792;BME280;29527;55.766;37.570;2022-07-05T13:17:01;99746.47;;;25.42;53.21
37792;BME280;29527;55.766;37.570;2022-07-05T13:19:27;99785.22;;;25.20;54.35
37792;BME280;29527;55.766;37.570;2022-07-05T13:21:52;99807.91;;;24.95;54.84
37792;BME280;29527;55.766;37.570;2022-07-05T13:24:18;99873.13;;;24.52;52.92
37792;BME280;29527;55.766;37.570;2022-07-05T13:26:43;99747.28;;;23.46;56.66
37792;BME280;29527;55.766;37.570;2022-07-05T13:29:09;99693.44;;;22.17;59.91
37792;BME280;29527;55.766;37.570;2022-07-05T13:31:35;99723.22;;;21.77;60.87
37792;BME280;29527;55.766;37.570;2022-07-05T13:34:00;99720.94;;;21.52;59.42
37792;BME280;29527;55.766;37.570;2022-07-05T13:36:26;99717.25;;;21.10;62.47
37792;BME280;29527;55.766;37.570;2022-07-05T13:38:52;99709.56;;;20.76;66.81